Glover, Vermont
Current Conditions -  °F | °C
As of 6:35 PM on Saturday 25 Oct 2014 (Local Time) from KCDA Reporting Station
Moderate Rain Moderate Rain  
Wind Chill: 51°   Ceiling: 4500
Heat Index: 51°   Visibility: 7mi
Dew Point: 40°   Wind: 5mph
Humidity: 67%   Direction: 180°S
Pressure: 29.55"   Gusts: NA
Location:  44.7°N, 72.21°W
Report Text: KCDA 252235Z AUTO 18004KT 7SM RA BKN045 OVC050 11/05 A2955 RMK AO2 T01070047
Loading
Personal Weather Stations






























Interactive Weather Map New forecast layout! Learn more

10-Day Weather Forecast

Advertisements
Track Severe Weather on mobile